createdAt,value
2023-01-01T00:01:59.656Z,15.63
2023-01-01T00:04:28.971Z,16.30
2023-01-01T00:06:58.449Z,15.30
2023-01-01T00:09:43.950Z,15.40
2023-01-01T00:12:12.351Z,15.30
2023-01-01T00:14:43.013Z,15.00
2023-01-01T00:17:11.365Z,17.90
2023-01-01T00:19:39.754Z,19.73
2023-01-01T00:22:35.274Z,17.77
2023-01-01T00:24:57.513Z,18.03
2023-01-01T00:27:25.746Z,17.10
2023-01-01T00:29:53.822Z,17.67
2023-01-01T00:32:23.012Z,17.50
2023-01-01T00:34:51.381Z,17.03
2023-01-01T00:37:20.864Z,16.90
2023-01-01T00:39:48.959Z,16.43
2023-01-01T00:42:17.061Z,17.37
2023-01-01T00:44:45.209Z,16.97
2023-01-01T00:47:13.368Z,18.20
2023-01-01T00:49:41.496Z,18.53
2023-01-01T00:52:09.622Z,16.90
2023-01-01T00:54:39.216Z,15.60
2023-01-01T00:57:07.448Z,15.47
2023-01-01T00:59:35.697Z,13.47
2023-01-01T01:02:04.011Z,14.63
2023-01-01T01:04:32.225Z,14.07
2023-01-01T01:07:00.313Z,12.60
2023-01-01T01:09:28.666Z,14.30
2023-01-01T01:12:17.672Z,14.17
2023-01-01T01:14:46.275Z,13.57
2023-01-01T01:17:14.329Z,14.50
2023-01-01T01:19:42.513Z,14.37
2023-01-01T01:22:10.683Z,13.53
2023-01-01T01:24:38.791Z,14.47
2023-01-01T01:27:08.366Z,15.13
2023-01-01T01:29:36.490Z,14.53
2023-01-01T01:32:04.977Z,14.37
2023-01-01T01:34:33.088Z,14.30
2023-01-01T01:37:01.201Z,15.17
2023-01-01T01:39:29.366Z,14.60
2023-01-01T01:41:57.615Z,14.27
2023-01-01T01:44:55.921Z,15.03
2023-01-01T01:47:33.845Z,15.27
2023-01-01T01:50:08.414Z,14.53
2023-01-01T01:52:39.198Z,15.30
2023-01-01T01:55:11.038Z,15.33
2023-01-01T01:57:40.406Z,15.00
2023-01-01T02:00:12.085Z,13.63
2023-01-01T02:02:44.802Z,13.87
2023-01-01T02:05:13.490Z,15.20
2023-01-01T02:07:42.488Z,14.03
2023-01-01T02:10:11.123Z,15.00
2023-01-01T02:12:39.428Z,14.63
2023-01-01T02:15:10.765Z,15.70
2023-01-01T02:17:45.864Z,14.30
2023-01-01T02:20:30.962Z,14.43
2023-01-01T02:23:33.979Z,15.23
2023-01-01T02:26:15.274Z,10.33
2023-01-01T02:28:55.289Z,13.73
2023-01-01T02:31:27.933Z,13.37
2023-01-01T02:34:02.304Z,11.60
2023-01-01T02:36:34.790Z,11.60
2023-01-01T02:39:06.313Z,11.17
2023-01-01T02:41:40.147Z,9.90
2023-01-01T02:44:09.736Z,8.63
2023-01-01T02:46:38.018Z,10.20
2023-01-01T02:49:10.182Z,10.83
2023-01-01T02:51:52.360Z,8.83
2023-01-01T02:54:32.467Z,9.23
2023-01-01T02:57:10.598Z,8.90
2023-01-01T03:00:16.793Z,9.40
2023-01-01T03:02:56.028Z,9.90
2023-01-01T03:05:32.584Z,11.40
2023-01-01T03:08:08.128Z,13.03
2023-01-01T03:10:44.273Z,14.00
2023-01-01T03:13:19.207Z,12.80
2023-01-01T03:15:59.932Z,12.00
2023-01-01T03:18:35.477Z,11.83
2023-01-01T03:21:06.391Z,9.97
2023-01-01T03:23:38.767Z,10.07
2023-01-01T03:26:11.026Z,8.57
2023-01-01T03:28:44.952Z,8.47
2023-01-01T03:31:19.403Z,8.47
2023-01-01T03:33:50.649Z,7.70
2023-01-01T03:36:22.777Z,8.23
2023-01-01T03:38:54.302Z,8.43
2023-01-01T03:41:28.897Z,8.37
2023-01-01T03:44:06.354Z,7.27
2023-01-01T03:46:38.052Z,7.40
2023-01-01T03:49:08.065Z,6.37
2023-01-01T03:51:58.123Z,5.80
2023-01-01T03:54:36.214Z,5.87
2023-01-01T03:57:11.153Z,5.20
2023-01-01T03:59:45.087Z,5.80
2023-01-01T04:02:20.359Z,5.87
2023-01-01T04:04:49.401Z,5.68
2023-01-01T04:07:17.988Z,5.63
2023-01-01T04:09:51.058Z,5.75
2023-01-01T04:12:20.237Z,5.87
2023-01-01T04:14:48.970Z,5.22
2023-01-01T04:17:18.571Z,6.28
2023-01-01T04:19:53.139Z,5.13
2023-01-01T04:22:23.553Z,5.28
2023-01-01T04:24:52.063Z,5.72
2023-01-01T04:27:21.090Z,5.53
2023-01-01T04:29:49.221Z,6.88
2023-01-01T04:32:18.773Z,6.53
2023-01-01T04:34:46.952Z,5.70
2023-01-01T04:37:15.199Z,6.03
2023-01-01T04:39:43.401Z,6.03
2023-01-01T04:42:11.481Z,5.47
2023-01-01T04:44:39.702Z,6.50
2023-01-01T04:47:07.990Z,6.47
2023-01-01T04:49:38.143Z,6.57
2023-01-01T04:52:07.226Z,6.15
2023-01-01T04:54:35.295Z,6.88
2023-01-01T04:57:03.440Z,6.68
2023-01-01T04:59:31.857Z,6.63
2023-01-01T05:02:00.280Z,6.40
2023-01-01T05:04:28.549Z,7.00
2023-01-01T05:06:58.040Z,6.43
2023-01-01T05:09:26.122Z,7.22
2023-01-01T05:11:55.554Z,6.93
2023-01-01T05:14:23.666Z,6.70
2023-01-01T05:16:51.931Z,8.03
2023-01-01T05:19:20.143Z,7.80
2023-01-01T05:21:48.221Z,7.77
2023-01-01T05:24:17.767Z,7.40
2023-01-01T05:26:46.413Z,6.90
2023-01-01T05:29:16.888Z,6.97
2023-01-01T05:31:46.143Z,7.00
2023-01-01T05:34:14.503Z,6.40
2023-01-01T05:36:42.610Z,6.20
2023-01-01T05:39:13.212Z,7.07
2023-01-01T05:41:43.449Z,6.32
2023-01-01T05:44:12.052Z,7.40
2023-01-01T05:46:40.285Z,7.20
2023-01-01T05:49:11.755Z,6.63
2023-01-01T05:54:07.353Z,6.40
2023-01-01T05:56:35.549Z,5.95
2023-01-01T05:59:05.175Z,6.45
2023-01-01T06:01:37.623Z,6.72
2023-01-01T06:04:11.652Z,7.28
2023-01-01T06:06:39.748Z,7.85
2023-01-01T06:09:07.932Z,8.20
2023-01-01T06:11:36.078Z,10.68
2023-01-01T06:14:05.593Z,8.97
2023-01-01T06:16:33.657Z,9.07
2023-01-01T06:19:01.787Z,9.18
2023-01-01T06:21:30.607Z,9.40
2023-01-01T06:23:59.973Z,9.73
2023-01-01T06:26:30.539Z,9.97
2023-01-01T06:28:59.413Z,9.67
2023-01-01T06:31:34.051Z,9.60
2023-01-01T06:34:05.329Z,9.83
2023-01-01T06:36:33.674Z,10.50
2023-01-01T06:39:03.623Z,10.53
2023-01-01T06:41:31.929Z,10.90
2023-01-01T06:44:02.084Z,10.53
2023-01-01T06:46:33.323Z,9.83
2023-01-01T06:49:04.776Z,10.93
2023-01-01T06:51:34.697Z,11.30
2023-01-01T06:54:04.751Z,11.60
2023-01-01T06:56:33.290Z,10.13
2023-01-01T06:59:02.170Z,11.10
2023-01-01T07:01:35.878Z,12.30
2023-01-01T07:04:07.877Z,11.77
2023-01-01T07:06:36.681Z,12.03
2023-01-01T07:09:05.373Z,12.67
2023-01-01T07:11:34.167Z,13.00
2023-01-01T07:14:03.272Z,12.77
2023-01-01T07:16:32.817Z,13.33
2023-01-01T07:19:01.400Z,13.13
2023-01-01T07:21:31.743Z,13.67
2023-01-01T07:24:01.193Z,13.47
2023-01-01T07:26:30.714Z,13.23
2023-01-01T07:29:06.284Z,13.93
2023-01-01T07:31:38.580Z,14.70
2023-01-01T07:34:06.954Z,13.80
2023-01-01T07:36:35.355Z,17.73
2023-01-01T07:39:03.516Z,23.10
2023-01-01T07:41:31.776Z,20.43
2023-01-01T07:44:00.546Z,19.33
2023-01-01T07:46:29.531Z,17.53
2023-01-01T07:49:00.879Z,17.70
2023-01-01T07:51:29.070Z,19.33
2023-01-01T07:54:02.263Z,24.67
2023-01-01T07:56:35.081Z,18.87
2023-01-01T07:59:03.232Z,30.37
2023-01-01T08:01:31.644Z,20.07
2023-01-01T08:04:01.152Z,17.87
2023-01-01T08:06:29.258Z,13.63
2023-01-01T08:08:57.356Z,13.67
2023-01-01T08:11:25.556Z,14.50
2023-01-01T08:13:53.620Z,13.17
2023-01-01T08:16:21.850Z,13.10
2023-01-01T08:18:50.026Z,12.27
2023-01-01T08:21:19.616Z,11.77
2023-01-01T08:23:47.699Z,11.90
2023-01-01T08:26:17.917Z,10.87
2023-01-01T08:28:47.854Z,11.47
2023-01-01T08:31:19.090Z,10.63
2023-01-01T08:33:47.213Z,11.30
2023-01-01T08:36:16.532Z,11.57
2023-01-01T08:38:45.982Z,11.70
2023-01-01T08:41:14.255Z,11.30
2023-01-01T08:43:42.378Z,11.30
2023-01-01T08:46:10.602Z,11.20
2023-01-01T08:48:38.715Z,11.70
2023-01-01T08:51:07.318Z,11.00
2023-01-01T08:53:35.467Z,11.10
2023-01-01T08:56:08.041Z,11.10
2023-01-01T08:58:37.666Z,12.10
2023-01-01T09:01:06.978Z,10.33
2023-01-01T09:03:35.695Z,11.70
2023-01-01T09:06:03.905Z,11.23
2023-01-01T09:08:32.457Z,10.33
2023-01-01T09:11:02.905Z,10.77
2023-01-01T09:13:34.322Z,10.60
2023-01-01T09:16:02.503Z,10.40
2023-01-01T09:18:32.691Z,10.93
2023-01-01T09:21:00.752Z,10.97
2023-01-01T09:23:28.846Z,10.93
2023-01-01T09:25:58.301Z,9.93
2023-01-01T09:28:28.829Z,9.80
2023-01-01T09:30:58.397Z,9.83
2023-01-01T09:33:31.096Z,10.77
2023-01-01T09:36:13.302Z,11.07
2023-01-01T09:38:41.513Z,11.30
2023-01-01T09:41:21.778Z,11.60
2023-01-01T09:44:00.618Z,11.90
2023-01-01T09:46:32.056Z,12.07
2023-01-01T09:49:04.433Z,10.93
2023-01-01T09:51:48.762Z,12.47
2023-01-01T09:54:28.071Z,13.37
2023-01-01T09:56:59.250Z,14.27
2023-01-01T09:59:27.833Z,14.60
2023-01-01T10:02:01.037Z,14.83
2023-01-01T10:04:42.824Z,15.47
2023-01-01T10:07:17.361Z,14.60
2023-01-01T10:09:56.365Z,15.57
2023-01-01T10:12:36.110Z,14.40
2023-01-01T10:15:14.023Z,14.10
2023-01-01T10:17:47.734Z,14.53
2023-01-01T10:20:21.268Z,14.17
2023-01-01T10:22:53.820Z,14.27
2023-01-01T10:25:26.049Z,13.40
2023-01-01T10:27:59.816Z,14.60
2023-01-01T10:30:30.171Z,13.43
2023-01-01T10:33:00.643Z,13.83
2023-01-01T10:35:35.943Z,13.30
2023-01-01T10:38:05.644Z,14.33
2023-01-01T10:40:34.855Z,14.10
2023-01-01T10:43:04.401Z,11.40
2023-01-01T10:45:35.538Z,12.20
2023-01-01T10:48:17.228Z,13.73
2023-01-01T10:50:51.290Z,12.50
2023-01-01T10:53:28.778Z,11.10
2023-01-01T10:56:13.062Z,12.23
2023-01-01T10:58:46.510Z,10.97
2023-01-01T11:01:21.989Z,11.70
2023-01-01T11:04:00.653Z,12.80
2023-01-01T11:06:32.953Z,12.45
2023-01-01T11:09:07.080Z,11.98
2023-01-01T11:11:44.211Z,12.07
2023-01-01T11:14:21.869Z,11.70
2023-01-01T11:16:50.643Z,11.68
2023-01-01T11:19:25.136Z,10.82
2023-01-01T11:21:53.287Z,11.75
2023-01-01T11:24:23.087Z,10.85
2023-01-01T11:26:54.848Z,12.00
2023-01-01T11:29:28.629Z,11.70
2023-01-01T11:31:58.197Z,10.95
2023-01-01T11:34:34.169Z,10.63
2023-01-01T11:37:20.576Z,10.40
2023-01-01T11:39:51.495Z,10.55
2023-01-01T11:42:22.792Z,10.45
2023-01-01T11:44:54.394Z,10.48
2023-01-01T11:47:30.338Z,10.93
2023-01-01T11:50:05.922Z,11.25
2023-01-01T11:52:40.064Z,11.23
2023-01-01T11:55:19.914Z,11.30
2023-01-01T11:58:04.603Z,11.45
2023-01-01T12:00:37.195Z,10.90
2023-01-01T12:03:16.741Z,11.40
2023-01-01T12:05:51.759Z,11.93
2023-01-01T12:08:29.812Z,11.23
2023-01-01T12:11:04.542Z,11.60
2023-01-01T12:13:39.616Z,11.35
2023-01-01T12:16:13.434Z,10.93
2023-01-01T12:18:47.998Z,10.32
2023-01-01T12:21:24.407Z,10.55
2023-01-01T12:23:52.884Z,11.65
2023-01-01T12:26:25.653Z,10.65
2023-01-01T12:29:28.934Z,10.68
2023-01-01T12:32:05.693Z,10.38
2023-01-01T12:34:40.101Z,10.32
2023-01-01T12:37:34.523Z,10.63
2023-01-01T12:40:38.771Z,9.88
2023-01-01T12:43:11.208Z,9.90
2023-01-01T12:46:05.537Z,10.48
2023-01-01T12:48:55.281Z,9.93
2023-01-01T12:51:37.246Z,9.52
2023-01-01T12:54:36.304Z,9.30
2023-01-01T12:57:10.784Z,9.77
2023-01-01T12:59:44.865Z,9.93
2023-01-01T13:02:17.752Z,8.82
2023-01-01T13:04:48.736Z,8.90
2023-01-01T13:07:25.077Z,9.20
2023-01-01T13:09:54.960Z,10.25
2023-01-01T13:12:25.577Z,9.13
2023-01-01T13:14:53.736Z,9.82
2023-01-01T13:17:23.986Z,8.95
2023-01-01T13:19:59.121Z,8.73
2023-01-01T13:22:44.371Z,8.63
2023-01-01T13:25:25.151Z,8.60
2023-01-01T13:28:12.148Z,8.38
2023-01-01T13:30:53.052Z,8.65
2023-01-01T13:33:27.287Z,9.23
2023-01-01T13:36:38.167Z,8.50
2023-01-01T13:39:08.431Z,10.05
2023-01-01T13:41:44.542Z,8.90
2023-01-01T13:44:18.680Z,8.77
2023-01-01T13:47:09.911Z,9.55
2023-01-01T13:49:54.606Z,8.65
2023-01-01T13:52:53.835Z,9.25
2023-01-01T13:55:52.699Z,9.40
2023-01-01T13:58:48.506Z,9.50
2023-01-01T14:01:36.809Z,9.23
2023-01-01T14:04:13.414Z,9.63
2023-01-01T14:06:46.389Z,9.93
2023-01-01T14:09:15.798Z,9.77
2023-01-01T14:11:44.185Z,11.25
2023-01-01T14:14:28.401Z,9.30
2023-01-01T14:17:00.200Z,8.85
2023-01-01T14:19:29.247Z,8.95
2023-01-01T14:21:57.876Z,9.30
2023-01-01T14:24:27.578Z,9.13
2023-01-01T14:26:56.573Z,8.52
2023-01-01T14:29:29.195Z,8.55
2023-01-01T14:32:01.141Z,8.25
2023-01-01T14:34:32.523Z,8.93
2023-01-01T14:37:02.523Z,9.02
2023-01-01T14:39:32.133Z,8.50
2023-01-01T14:42:03.855Z,8.52
2023-01-01T14:44:37.266Z,8.85
2023-01-01T14:47:06.477Z,9.00
2023-01-01T14:49:38.397Z,8.50
2023-01-01T14:52:10.468Z,8.20
2023-01-01T14:54:42.381Z,8.60
2023-01-01T14:57:15.112Z,8.57
2023-01-01T14:59:49.469Z,9.02
2023-01-01T15:02:22.290Z,8.98
2023-01-01T15:04:51.027Z,8.75
2023-01-01T15:07:23.293Z,8.35
2023-01-01T15:09:52.075Z,9.32
2023-01-01T15:12:21.129Z,9.90
2023-01-01T15:14:52.786Z,9.65
2023-01-01T15:17:22.712Z,9.68
2023-01-01T15:20:03.392Z,10.02
2023-01-01T15:22:33.917Z,10.63
2023-01-01T15:25:03.363Z,10.65
2023-01-01T15:27:34.132Z,10.98
2023-01-01T15:30:11.650Z,10.63
2023-01-01T15:32:42.288Z,11.18
2023-01-01T15:35:27.752Z,10.25
2023-01-01T15:38:03.466Z,10.98
2023-01-01T15:40:36.111Z,10.32
2023-01-01T15:43:15.625Z,10.53
2023-01-01T15:45:54.001Z,10.63
2023-01-01T15:48:27.932Z,10.35
2023-01-01T15:51:06.365Z,10.35
2023-01-01T15:53:47.158Z,10.13
2023-01-01T15:56:16.389Z,12.00
2023-01-01T15:58:51.625Z,12.75
2023-01-01T16:01:24.062Z,12.25
2023-01-01T16:03:58.949Z,11.93
2023-01-01T16:06:27.264Z,13.73
2023-01-01T16:08:55.392Z,11.87
2023-01-01T16:11:23.655Z,12.60
2023-01-01T16:13:51.704Z,12.93
2023-01-01T16:16:26.760Z,13.43
2023-01-01T16:18:56.505Z,13.27
2023-01-01T16:21:27.834Z,13.40
2023-01-01T16:23:56.533Z,13.07
2023-01-01T16:26:24.579Z,13.20
2023-01-01T16:28:53.148Z,12.90
2023-01-01T16:31:28.024Z,13.67
2023-01-01T16:33:58.658Z,14.07
2023-01-01T16:36:29.278Z,14.90
2023-01-01T16:39:05.269Z,15.00
2023-01-01T16:41:33.480Z,16.50
2023-01-01T16:44:01.600Z,16.57
2023-01-01T16:46:33.659Z,14.97
2023-01-01T16:49:02.042Z,15.63
2023-01-01T16:51:33.849Z,15.07
2023-01-01T16:54:02.034Z,15.73
2023-01-01T16:56:30.485Z,14.97
2023-01-01T16:59:03.292Z,15.20
2023-01-01T17:01:33.483Z,15.13
2023-01-01T17:04:01.750Z,13.43
2023-01-01T17:06:29.902Z,13.23
2023-01-01T17:08:57.996Z,14.03
2023-01-01T17:11:26.108Z,13.80
2023-01-01T17:13:54.212Z,13.23
2023-01-01T17:16:27.290Z,12.37
2023-01-01T17:19:17.258Z,11.80
2023-01-01T17:21:47.724Z,10.90
2023-01-01T17:24:16.624Z,12.23
2023-01-01T17:26:44.911Z,12.73
2023-01-01T17:29:12.963Z,13.67
2023-01-01T17:31:41.069Z,12.90
2023-01-01T17:34:14.299Z,13.67
2023-01-01T17:36:43.713Z,14.07
2023-01-01T17:39:12.506Z,13.67
2023-01-01T17:41:41.104Z,14.57
2023-01-01T17:44:09.536Z,14.13
2023-01-01T17:46:37.862Z,16.20
2023-01-01T17:49:06.569Z,13.73
2023-01-01T17:51:36.008Z,15.07
2023-01-01T17:54:06.520Z,14.97
2023-01-01T17:56:34.622Z,14.33
2023-01-01T17:59:04.411Z,16.00
2023-01-01T18:01:35.498Z,15.63
2023-01-01T18:04:06.306Z,14.83
2023-01-01T18:06:41.511Z,16.17
2023-01-01T18:09:12.762Z,16.00
2023-01-01T18:11:41.863Z,17.00
2023-01-01T18:14:10.366Z,18.10
2023-01-01T18:16:40.497Z,19.47
2023-01-01T18:19:08.834Z,19.97
2023-01-01T18:21:38.334Z,19.33
2023-01-01T18:24:12.055Z,18.50
2023-01-01T18:26:40.172Z,19.77
2023-01-01T18:29:08.367Z,21.60
2023-01-01T18:31:37.069Z,21.10
2023-01-01T18:34:07.063Z,23.17
2023-01-01T18:36:36.233Z,22.73
2023-01-01T18:39:14.575Z,20.00
2023-01-01T18:42:19.257Z,18.80
2023-01-01T18:44:47.821Z,21.17
2023-01-01T18:47:17.746Z,19.23
2023-01-01T18:49:49.887Z,19.43
2023-01-01T18:52:25.746Z,18.40
2023-01-01T18:55:04.126Z,22.63
2023-01-01T18:57:32.935Z,21.13
2023-01-01T19:00:02.059Z,22.13
2023-01-01T19:02:38.120Z,22.40
2023-01-01T19:05:19.013Z,24.10
2023-01-01T19:07:53.006Z,25.00
2023-01-01T19:10:22.527Z,24.90
2023-01-01T19:12:54.985Z,23.60
2023-01-01T19:15:23.773Z,21.00
2023-01-01T19:17:54.843Z,19.47
2023-01-01T19:20:24.814Z,18.07
2023-01-01T19:22:53.025Z,19.47
2023-01-01T19:25:36.124Z,18.40
2023-01-01T19:28:35.709Z,18.37
2023-01-01T19:31:05.485Z,19.37
2023-01-01T19:33:33.675Z,18.97
2023-01-01T19:36:01.900Z,18.47
2023-01-01T19:38:29.960Z,19.57
2023-01-01T19:40:59.483Z,19.07
2023-01-01T19:43:27.664Z,19.93
2023-01-01T19:45:55.859Z,21.63
2023-01-01T19:48:23.958Z,24.53
2023-01-01T19:50:52.396Z,21.83
2023-01-01T19:53:20.427Z,20.20
2023-01-01T19:55:48.604Z,23.53
2023-01-01T19:58:19.894Z,24.00
2023-01-01T20:00:48.171Z,24.00
2023-01-01T20:03:52.305Z,23.23
2023-01-01T20:06:05.016Z,23.13
2023-01-01T20:08:33.139Z,23.77
2023-01-01T20:11:01.581Z,23.70
2023-01-01T20:13:31.121Z,22.60
2023-01-01T20:15:59.491Z,27.00
2023-01-01T20:18:27.611Z,26.00
2023-01-01T20:21:12.989Z,26.47
2023-01-01T20:23:41.919Z,27.47
2023-01-01T20:26:10.301Z,27.80
2023-01-01T20:28:57.407Z,29.87
2023-01-01T20:31:25.557Z,27.70
2023-01-01T20:33:53.647Z,26.63
2023-01-01T20:36:39.213Z,26.57
2023-01-01T20:39:07.334Z,25.13
2023-01-01T20:41:35.588Z,26.50
2023-01-01T20:44:05.073Z,26.50
2023-01-01T20:46:36.243Z,24.93
2023-01-01T20:49:04.466Z,26.37
2023-01-01T20:51:32.623Z,27.40
2023-01-01T20:54:00.800Z,27.47
2023-01-01T20:56:29.029Z,28.00
2023-01-01T20:59:01.820Z,29.00
2023-01-01T21:01:37.385Z,29.40
2023-01-01T21:04:05.962Z,28.03
2023-01-01T21:06:34.269Z,28.40
2023-01-01T21:09:05.076Z,29.07
2023-01-01T21:11:33.294Z,28.33
2023-01-01T21:14:01.553Z,28.23
2023-01-01T21:16:33.734Z,28.77
2023-01-01T21:19:04.770Z,30.30
2023-01-01T21:21:42.265Z,32.70
2023-01-01T21:24:21.554Z,31.17
2023-01-01T21:26:51.818Z,33.90
2023-01-01T21:29:22.492Z,33.53
2023-01-01T21:31:54.117Z,31.43
2023-01-01T21:34:35.721Z,32.80
2023-01-01T21:37:14.753Z,32.50
2023-01-01T21:39:42.994Z,33.20
2023-01-01T21:42:24.549Z,32.70
2023-01-01T21:44:57.759Z,34.23
2023-01-01T21:47:26.975Z,33.90
2023-01-01T21:49:57.514Z,34.80
2023-01-01T21:52:26.303Z,34.93
2023-01-01T21:54:55.772Z,35.73
2023-01-01T21:57:25.905Z,34.07
2023-01-01T21:59:54.923Z,37.30
2023-01-01T22:02:38.485Z,37.07
2023-01-01T22:05:30.830Z,38.37
2023-01-01T22:08:00.158Z,41.17
2023-01-01T22:10:35.389Z,39.50
2023-01-01T22:13:03.786Z,39.33
2023-01-01T22:15:39.325Z,40.50
2023-01-01T22:18:27.102Z,39.43
2023-01-01T22:20:58.016Z,41.57
2023-01-01T22:23:41.699Z,42.03
2023-01-01T22:26:18.711Z,42.67
2023-01-01T22:28:50.214Z,43.30
2023-01-01T22:31:21.539Z,43.60
2023-01-01T22:33:51.045Z,43.73
2023-01-01T22:36:25.524Z,45.93
2023-01-01T22:38:55.660Z,44.60
2023-01-01T22:41:23.795Z,44.83
2023-01-01T22:43:58.038Z,45.90
2023-01-01T22:46:30.284Z,47.57
2023-01-01T22:49:01.142Z,47.73
2023-01-01T22:51:38.538Z,47.40
2023-01-01T22:54:06.807Z,48.33
2023-01-01T22:56:35.012Z,47.73
2023-01-01T22:59:05.106Z,46.70
2023-01-01T23:01:33.239Z,49.40
2023-01-01T23:04:01.408Z,50.57
2023-01-01T23:06:31.065Z,53.70
2023-01-01T23:08:59.407Z,55.17
2023-01-01T23:11:28.635Z,59.67
2023-01-01T23:14:22.671Z,57.60
2023-01-01T23:16:50.877Z,58.83
2023-01-01T23:19:20.098Z,61.43
2023-01-01T23:21:49.606Z,64.87
2023-01-01T23:24:21.196Z,72.80
2023-01-01T23:26:50.646Z,73.27
2023-01-01T23:29:20.275Z,74.43
2023-01-01T23:31:49.725Z,74.43
2023-01-01T23:34:18.336Z,75.73
2023-01-01T23:36:46.689Z,76.63
2023-01-01T23:39:16.128Z,75.73
2023-01-01T23:41:44.203Z,73.87
2023-01-01T23:44:12.358Z,70.10
2023-01-01T23:46:40.929Z,70.47
2023-01-01T23:49:09.447Z,72.27
2023-01-01T23:51:39.341Z,73.23
2023-01-01T23:54:07.476Z,74.97
2023-01-01T23:56:37.142Z,75.33
2023-01-01T23:59:05.368Z,74.63
